Wichelen, Belgium
Current Conditions -  °F | °C
As of 1:50 PM on Friday 19 Dec 2014 (Local Time) from EBAW Reporting Station
Broken Clouds Broken Clouds  
Wind Chill:   Ceiling: 3000
Heat Index:   Visibility: 6mi
Dew Point:   Wind: 12mph
Humidity: 87%   Direction: 300°WNW
Pressure: 29.94"   Gusts: NA
Location:  51.01°N, 3.98°E
Report Text: EBAW 191250Z 30010KT 270V340 9999 FEW015 BKN030 08/06 Q1014 NOSIG
Loading
Personal Weather Stations






























Interactive Weather Map New forecast layout! Learn more

10-Day Weather Forecast

Advertisements
Track Severe Weather on mobile